createdAt,value
2022-12-29T00:00:55.456Z,1.60
2022-12-29T00:03:22.235Z,2.67
2022-12-29T00:05:56.244Z,1.55
2022-12-29T00:08:40.632Z,2.45
2022-12-29T00:11:17.877Z,1.77
2022-12-29T00:14:04.320Z,3.60
2022-12-29T00:16:31.936Z,1.85
2022-12-29T00:18:59.167Z,2.42
2022-12-29T00:21:44.989Z,1.85
2022-12-29T00:24:27.090Z,2.13
2022-12-29T00:27:32.328Z,2.38
2022-12-29T00:30:18.556Z,2.25
2022-12-29T00:33:03.993Z,1.95
2022-12-29T00:35:34.676Z,2.40
2022-12-29T00:38:26.756Z,1.77
2022-12-29T00:41:12.115Z,1.52
2022-12-29T00:43:57.274Z,2.03
2022-12-29T00:46:24.013Z,2.10
2022-12-29T00:49:09.061Z,1.60
2022-12-29T00:51:35.696Z,2.08
2022-12-29T00:54:02.397Z,1.60
2022-12-29T00:56:29.102Z,1.63
2022-12-29T00:58:55.739Z,2.50
2022-12-29T01:01:22.505Z,2.45
2022-12-29T01:03:49.231Z,2.63
2022-12-29T01:06:15.958Z,2.30
2022-12-29T01:08:42.688Z,2.50
2022-12-29T01:11:12.281Z,2.35
2022-12-29T01:13:39.707Z,4.25
2022-12-29T01:16:06.890Z,2.35
2022-12-29T01:18:34.659Z,3.15
2022-12-29T01:21:03.200Z,2.45
2022-12-29T01:23:30.737Z,3.00
2022-12-29T01:25:57.871Z,2.58
2022-12-29T01:28:26.255Z,3.10
2022-12-29T01:30:53.143Z,3.75
2022-12-29T01:33:19.727Z,3.40
2022-12-29T01:35:46.427Z,2.00
2022-12-29T01:38:13.073Z,2.88
2022-12-29T01:40:47.168Z,2.92
2022-12-29T01:43:16.010Z,2.97
2022-12-29T01:45:51.531Z,3.00
2022-12-29T01:48:19.747Z,3.47
2022-12-29T01:50:53.274Z,2.40
2022-12-29T01:53:29.330Z,3.60
2022-12-29T01:56:01.225Z,2.15
2022-12-29T01:58:31.770Z,3.97
2022-12-29T02:00:58.442Z,3.90
2022-12-29T02:03:27.661Z,4.45
2022-12-29T02:05:57.320Z,2.47
2022-12-29T02:08:27.677Z,2.88
2022-12-29T02:10:55.656Z,2.70
2022-12-29T02:13:24.387Z,2.80
2022-12-29T02:16:22.044Z,2.17
2022-12-29T02:19:05.609Z,1.95
2022-12-29T02:21:53.210Z,2.15
2022-12-29T02:25:03.067Z,1.92
2022-12-29T02:27:51.948Z,2.20
2022-12-29T02:30:43.818Z,2.85
2022-12-29T02:33:41.258Z,1.73
2022-12-29T02:36:22.793Z,2.35
2022-12-29T02:39:04.654Z,2.53
2022-12-29T02:41:33.418Z,2.67
2022-12-29T02:44:17.848Z,2.00
2022-12-29T02:46:51.872Z,1.60
2022-12-29T02:49:27.371Z,3.55
2022-12-29T02:52:02.046Z,1.65
2022-12-29T02:54:44.173Z,2.05
2022-12-29T02:57:22.790Z,2.60
2022-12-29T03:00:04.078Z,1.90
2022-12-29T03:02:35.949Z,1.42
2022-12-29T03:05:27.166Z,2.03
2022-12-29T03:08:14.349Z,1.75
2022-12-29T03:10:59.094Z,1.42
2022-12-29T03:14:06.905Z,1.27
2022-12-29T03:16:48.666Z,0.88
2022-12-29T03:19:27.242Z,1.10
2022-12-29T03:22:20.417Z,0.55
2022-12-29T03:24:51.854Z,1.30
2022-12-29T03:27:23.550Z,0.65
2022-12-29T03:29:56.273Z,0.60
2022-12-29T03:32:26.995Z,0.47
2022-12-29T03:34:55.925Z,0.30
2022-12-29T03:37:27.146Z,0.30
2022-12-29T03:39:53.845Z,0.20
2022-12-29T03:42:24.894Z,0.25
2022-12-29T03:44:56.701Z,0.30
2022-12-29T03:47:24.260Z,0.30
2022-12-29T03:49:51.933Z,0.30
2022-12-29T03:52:19.190Z,0.40
2022-12-29T03:54:46.093Z,0.38
2022-12-29T03:57:12.751Z,0.30
2022-12-29T03:59:39.354Z,0.30
2022-12-29T04:02:06.099Z,0.40
2022-12-29T04:04:32.865Z,0.40
2022-12-29T04:06:59.529Z,0.40
2022-12-29T04:09:26.144Z,0.40
2022-12-29T04:11:52.746Z,0.60
2022-12-29T04:14:19.360Z,0.68
2022-12-29T04:16:46.129Z,0.55
2022-12-29T04:19:13.728Z,0.43
2022-12-29T04:21:40.359Z,0.30
2022-12-29T04:24:07.787Z,0.47
2022-12-29T04:26:34.577Z,0.40
2022-12-29T04:29:01.257Z,0.47
2022-12-29T04:31:27.966Z,0.50
2022-12-29T04:33:54.804Z,0.30
2022-12-29T04:36:25.337Z,0.60
2022-12-29T04:38:56.289Z,0.47
2022-12-29T04:41:22.930Z,0.38
2022-12-29T04:43:49.576Z,0.50
2022-12-29T04:46:16.566Z,0.55
2022-12-29T04:48:45.056Z,0.40
2022-12-29T04:51:11.671Z,0.60
2022-12-29T04:53:38.290Z,0.43
2022-12-29T04:56:05.234Z,0.40
2022-12-29T04:58:31.896Z,0.30
2022-12-29T05:00:58.539Z,0.50
2022-12-29T05:03:25.249Z,0.40
2022-12-29T05:05:55.695Z,0.98
2022-12-29T05:08:27.789Z,0.60
2022-12-29T05:10:55.055Z,0.63
2022-12-29T05:13:21.699Z,0.52
2022-12-29T05:15:55.112Z,1.08
2022-12-29T05:18:21.855Z,0.45
2022-12-29T05:20:48.772Z,0.77
2022-12-29T05:23:16.542Z,0.40
2022-12-29T05:25:46.317Z,0.60
2022-12-29T05:28:13.897Z,0.60
2022-12-29T05:30:41.202Z,0.52
2022-12-29T05:33:07.901Z,0.52
2022-12-29T05:35:34.774Z,0.57
2022-12-29T05:38:01.423Z,0.80
2022-12-29T05:40:28.040Z,0.80
2022-12-29T05:42:54.656Z,0.70
2022-12-29T05:45:21.271Z,0.98
2022-12-29T05:47:47.888Z,0.80
2022-12-29T05:50:14.622Z,0.40
2022-12-29T05:52:41.337Z,0.70
2022-12-29T05:55:08.337Z,0.80
2022-12-29T05:57:34.995Z,0.60
2022-12-29T06:00:01.748Z,0.85
2022-12-29T06:02:28.492Z,0.63
2022-12-29T06:04:55.275Z,0.70
2022-12-29T06:07:21.883Z,0.70
2022-12-29T06:09:48.509Z,0.50
2022-12-29T06:12:15.233Z,0.60
2022-12-29T06:14:41.861Z,0.70
2022-12-29T06:17:08.477Z,0.70
2022-12-29T06:19:35.112Z,0.57
2022-12-29T06:22:01.737Z,0.88
2022-12-29T06:24:28.511Z,0.60
2022-12-29T06:26:55.194Z,0.50
2022-12-29T06:29:21.924Z,0.63
2022-12-29T06:31:49.779Z,0.70
2022-12-29T06:34:16.710Z,0.73
2022-12-29T06:36:43.926Z,0.57
2022-12-29T06:39:11.588Z,0.60
2022-12-29T06:41:38.892Z,0.80
2022-12-29T06:44:05.766Z,0.80
2022-12-29T06:46:32.512Z,0.70
2022-12-29T06:48:59.464Z,0.88
2022-12-29T06:51:26.085Z,0.93
2022-12-29T06:53:52.690Z,0.90
2022-12-29T06:56:19.310Z,0.70
2022-12-29T06:58:45.916Z,0.70
2022-12-29T07:01:13.421Z,0.75
2022-12-29T07:03:43.545Z,0.57
2022-12-29T07:06:10.593Z,0.82
2022-12-29T07:08:37.231Z,0.60
2022-12-29T07:11:04.010Z,0.70
2022-12-29T07:13:30.627Z,0.95
2022-12-29T07:15:57.468Z,0.80
2022-12-29T07:18:24.070Z,0.80
2022-12-29T07:20:50.686Z,0.95
2022-12-29T07:23:17.373Z,1.00
2022-12-29T07:25:44.060Z,0.88
2022-12-29T07:28:10.648Z,0.73
2022-12-29T07:30:38.581Z,1.60
2022-12-29T07:33:05.358Z,0.77
2022-12-29T07:35:31.968Z,0.77
2022-12-29T07:37:58.619Z,1.05
2022-12-29T07:40:25.456Z,0.60
2022-12-29T07:42:52.409Z,0.77
2022-12-29T07:45:19.044Z,1.40
2022-12-29T07:47:49.310Z,1.05
2022-12-29T07:50:16.023Z,0.90
2022-12-29T07:52:42.645Z,0.75
2022-12-29T07:55:10.003Z,0.80
2022-12-29T07:57:37.279Z,0.52
2022-12-29T08:00:04.901Z,1.05
2022-12-29T08:02:31.626Z,0.85
2022-12-29T08:04:58.305Z,0.77
2022-12-29T08:07:24.983Z,0.77
2022-12-29T08:09:52.445Z,0.60
2022-12-29T08:12:19.633Z,1.00
2022-12-29T08:14:46.568Z,0.98
2022-12-29T08:17:13.355Z,0.90
2022-12-29T08:19:40.274Z,0.95
2022-12-29T08:22:06.911Z,0.80
2022-12-29T08:24:33.554Z,1.00
2022-12-29T08:27:06.933Z,1.15
2022-12-29T08:29:39.016Z,0.85
2022-12-29T08:32:06.116Z,1.05
2022-12-29T08:34:33.791Z,1.35
2022-12-29T08:37:01.087Z,0.85
2022-12-29T08:39:28.183Z,0.80
2022-12-29T08:41:55.517Z,0.60
2022-12-29T08:44:22.831Z,0.65
2022-12-29T08:46:49.484Z,0.93
2022-12-29T08:49:16.316Z,0.75
2022-12-29T08:51:42.991Z,0.82
2022-12-29T08:54:09.675Z,0.57
2022-12-29T08:56:37.222Z,0.63
2022-12-29T08:59:04.268Z,0.57
2022-12-29T09:01:31.673Z,0.60
2022-12-29T09:04:16.110Z,0.50
2022-12-29T09:06:43.249Z,1.40
2022-12-29T09:09:10.135Z,1.20
2022-12-29T09:11:36.773Z,0.60
2022-12-29T09:14:04.567Z,0.85
2022-12-29T09:16:31.474Z,1.10
2022-12-29T09:18:58.159Z,1.63
2022-12-29T09:21:25.013Z,1.60
2022-12-29T09:23:51.727Z,0.85
2022-12-29T09:26:18.396Z,0.73
2022-12-29T09:28:45.773Z,1.02
2022-12-29T09:31:12.680Z,1.52
2022-12-29T09:33:40.274Z,1.08
2022-12-29T09:36:07.379Z,1.08
2022-12-29T09:38:34.029Z,1.00
2022-12-29T09:41:15.918Z,0.88
2022-12-29T09:43:52.063Z,1.42
2022-12-29T09:46:32.687Z,1.45
2022-12-29T09:49:18.969Z,1.42
2022-12-29T09:51:51.261Z,1.25
2022-12-29T09:54:40.020Z,0.93
2022-12-29T09:57:17.098Z,0.90
2022-12-29T09:59:46.525Z,1.35
2022-12-29T10:02:29.943Z,0.82
2022-12-29T10:04:56.824Z,1.08
2022-12-29T10:07:41.728Z,0.90
2022-12-29T10:10:23.582Z,1.27
2022-12-29T10:12:58.913Z,1.40
2022-12-29T10:15:39.157Z,1.63
2022-12-29T10:18:31.370Z,1.60
2022-12-29T10:21:18.843Z,1.13
2022-12-29T10:23:48.970Z,1.20
2022-12-29T10:26:20.601Z,1.40
2022-12-29T10:28:59.502Z,1.50
2022-12-29T10:31:42.410Z,1.50
2022-12-29T10:34:29.278Z,1.00
2022-12-29T10:37:03.953Z,1.40
2022-12-29T10:39:37.976Z,1.20
2022-12-29T10:42:20.980Z,1.00
2022-12-29T10:44:48.183Z,1.13
2022-12-29T10:47:21.924Z,2.33
2022-12-29T10:49:49.710Z,1.10
2022-12-29T10:52:18.739Z,1.58
2022-12-29T10:55:20.222Z,1.20
2022-12-29T10:57:48.279Z,1.42
2022-12-29T11:00:17.783Z,1.67
2022-12-29T11:02:52.789Z,1.60
2022-12-29T11:05:42.545Z,1.25
2022-12-29T11:08:16.959Z,1.50
2022-12-29T11:10:45.772Z,1.45
2022-12-29T11:13:32.132Z,1.50
2022-12-29T11:16:01.896Z,1.20
2022-12-29T11:18:38.051Z,1.15
2022-12-29T11:21:24.246Z,2.00
2022-12-29T11:24:05.092Z,1.65
2022-12-29T11:26:34.770Z,1.70
2022-12-29T11:29:17.053Z,1.88
2022-12-29T11:32:07.549Z,1.27
2022-12-29T11:34:36.579Z,1.25
2022-12-29T11:37:12.441Z,1.92
2022-12-29T11:39:50.547Z,1.65
2022-12-29T11:42:19.795Z,2.13
2022-12-29T11:44:49.474Z,1.75
2022-12-29T11:47:34.763Z,1.85
2022-12-29T11:50:04.817Z,1.73
2022-12-29T11:52:36.191Z,1.92
2022-12-29T11:55:07.059Z,1.42
2022-12-29T11:57:35.600Z,1.00
2022-12-29T12:00:16.107Z,1.48
2022-12-29T12:03:05.837Z,2.17
2022-12-29T12:06:03.171Z,1.15
2022-12-29T12:08:43.142Z,2.05
2022-12-29T12:11:23.402Z,1.40
2022-12-29T12:14:01.081Z,1.85
2022-12-29T12:19:15.402Z,1.00
2022-12-29T12:21:46.080Z,1.23
2022-12-29T12:24:43.259Z,1.25
2022-12-29T12:27:18.646Z,1.40
2022-12-29T12:30:00.845Z,1.58
2022-12-29T12:32:43.837Z,1.15
2022-12-29T12:35:51.476Z,1.67
2022-12-29T12:38:50.548Z,0.93
2022-12-29T12:41:26.663Z,1.63
2022-12-29T12:44:05.989Z,1.08
2022-12-29T12:47:00.966Z,1.60
2022-12-29T12:49:59.740Z,1.83
2022-12-29T12:52:26.319Z,1.00
2022-12-29T12:54:53.376Z,1.95
2022-12-29T12:57:37.895Z,1.17
2022-12-29T13:00:21.895Z,1.27
2022-12-29T13:02:54.626Z,2.28
2022-12-29T13:05:36.430Z,1.52
2022-12-29T13:08:06.145Z,1.38
2022-12-29T13:11:08.195Z,1.10
2022-12-29T13:14:02.933Z,1.08
2022-12-29T13:16:48.473Z,1.60
2022-12-29T13:19:30.394Z,2.10
2022-12-29T13:22:35.702Z,1.40
2022-12-29T13:25:23.910Z,1.08
2022-12-29T13:27:58.060Z,2.40
2022-12-29T13:30:34.597Z,1.85
2022-12-29T13:33:39.217Z,1.90
2022-12-29T13:36:39.212Z,1.50
2022-12-29T13:39:22.955Z,2.03
2022-12-29T13:41:55.159Z,1.20
2022-12-29T13:44:33.222Z,2.10
2022-12-29T13:47:13.163Z,1.45
2022-12-29T13:49:40.763Z,1.63
2022-12-29T13:52:25.903Z,2.00
2022-12-29T13:54:59.290Z,1.77
2022-12-29T13:58:08.665Z,1.30
2022-12-29T14:01:23.620Z,1.70
2022-12-29T14:03:52.044Z,1.63
2022-12-29T14:06:26.435Z,1.80
2022-12-29T14:09:15.663Z,1.63
2022-12-29T14:11:49.847Z,1.80
2022-12-29T14:14:23.700Z,1.10
2022-12-29T14:16:51.064Z,0.90
2022-12-29T14:19:20.150Z,1.02
2022-12-29T14:21:59.363Z,1.40
2022-12-29T14:24:38.118Z,2.20
2022-12-29T14:27:11.169Z,0.90
2022-12-29T14:29:40.800Z,0.95
2022-12-29T14:32:22.668Z,1.30
2022-12-29T14:34:52.383Z,0.90
2022-12-29T14:37:32.962Z,0.85
2022-12-29T14:40:20.367Z,1.25
2022-12-29T14:45:15.228Z,0.63
2022-12-29T14:47:49.260Z,0.90
2022-12-29T14:50:22.984Z,1.00
2022-12-29T14:53:02.075Z,1.10
2022-12-29T14:55:55.173Z,1.08
2022-12-29T14:58:23.293Z,2.35
2022-12-29T15:00:50.444Z,1.92
2022-12-29T15:03:38.829Z,1.80
2022-12-29T15:06:14.493Z,1.20
2022-12-29T15:08:51.005Z,1.98
2022-12-29T15:11:31.866Z,1.30
2022-12-29T15:13:58.608Z,1.23
2022-12-29T15:16:30.820Z,1.52
2022-12-29T15:18:58.034Z,0.95
2022-12-29T15:21:28.007Z,1.38
2022-12-29T15:23:54.967Z,1.15
2022-12-29T15:26:23.779Z,1.60
2022-12-29T15:28:55.598Z,1.63
2022-12-29T15:31:30.046Z,1.42
2022-12-29T15:34:11.397Z,1.67
2022-12-29T15:36:39.706Z,1.40
2022-12-29T15:39:29.422Z,1.60
2022-12-29T15:42:01.081Z,0.73
2022-12-29T15:44:40.523Z,1.00
2022-12-29T15:47:19.279Z,2.72
2022-12-29T15:49:50.417Z,0.90
2022-12-29T15:52:21.075Z,1.17
2022-12-29T15:54:51.650Z,1.35
2022-12-29T15:57:25.747Z,1.23
2022-12-29T15:59:54.865Z,1.88
2022-12-29T16:02:24.642Z,1.38
2022-12-29T16:10:28.098Z,1.58
2022-12-29T16:12:55.029Z,1.50
2022-12-29T16:15:22.363Z,1.30
2022-12-29T16:17:53.442Z,1.05
2022-12-29T16:20:24.112Z,1.75
2022-12-29T16:22:57.091Z,1.25
2022-12-29T16:25:26.657Z,1.60
2022-12-29T16:27:54.593Z,1.80
2022-12-29T16:30:32.886Z,1.40
2022-12-29T16:33:03.992Z,2.13
2022-12-29T16:35:47.147Z,1.17
2022-12-29T16:38:14.551Z,1.67
2022-12-29T16:40:51.307Z,1.27
2022-12-29T16:43:27.002Z,1.38
2022-12-29T16:45:53.608Z,1.17
2022-12-29T16:48:26.699Z,1.13
2022-12-29T16:51:03.305Z,1.40
2022-12-29T16:53:35.519Z,1.60
2022-12-29T16:56:30.785Z,1.15
2022-12-29T16:59:26.832Z,1.88
2022-12-29T17:01:53.666Z,1.10
2022-12-29T17:04:20.392Z,1.60
2022-12-29T17:06:47.113Z,1.38
2022-12-29T17:09:26.355Z,1.38
2022-12-29T17:12:05.335Z,1.10
2022-12-29T17:14:54.176Z,1.50
2022-12-29T17:17:41.283Z,1.20
2022-12-29T17:20:18.069Z,1.42
2022-12-29T17:22:45.748Z,1.48
2022-12-29T17:25:14.805Z,1.30
2022-12-29T17:27:51.237Z,1.42
2022-12-29T17:30:22.001Z,2.28
2022-12-29T17:33:10.324Z,1.73
2022-12-29T17:35:37.389Z,2.05
2022-12-29T17:38:16.085Z,1.63
2022-12-29T17:40:43.004Z,1.38
2022-12-29T17:43:13.746Z,1.02
2022-12-29T17:45:42.006Z,2.03
2022-12-29T17:48:13.470Z,2.40
2022-12-29T17:50:40.940Z,2.25
2022-12-29T17:53:14.206Z,1.75
2022-12-29T17:55:41.797Z,1.65
2022-12-29T17:58:15.739Z,1.88
2022-12-29T18:00:42.764Z,1.58
2022-12-29T18:03:16.389Z,2.15
2022-12-29T18:05:44.680Z,2.10
2022-12-29T18:08:12.354Z,2.92
2022-12-29T18:10:40.036Z,1.88
2022-12-29T18:13:07.443Z,2.03
2022-12-29T18:15:36.602Z,2.30
2022-12-29T18:18:12.250Z,2.60
2022-12-29T18:20:41.054Z,2.15
2022-12-29T18:23:21.400Z,1.75
2022-12-29T18:25:54.041Z,2.58
2022-12-29T18:28:21.398Z,2.63
2022-12-29T18:30:48.211Z,2.25
2022-12-29T18:33:21.918Z,1.85
2022-12-29T18:35:59.097Z,2.67
2022-12-29T18:38:26.040Z,2.30
2022-12-29T18:40:53.840Z,3.72
2022-12-29T18:43:21.064Z,1.63
2022-12-29T18:45:47.773Z,2.15
2022-12-29T18:48:16.013Z,1.80
2022-12-29T18:50:42.853Z,1.67
2022-12-29T18:53:25.076Z,1.95
2022-12-29T18:55:53.009Z,1.92
2022-12-29T18:58:19.964Z,2.42
2022-12-29T19:00:47.644Z,2.10
2022-12-29T19:03:16.835Z,2.05
2022-12-29T19:05:45.486Z,2.63
2022-12-29T19:08:12.844Z,3.17
2022-12-29T19:10:43.444Z,2.15
2022-12-29T19:13:17.676Z,1.65
2022-12-29T19:15:46.474Z,2.70
2022-12-29T19:21:08.393Z,1.90
2022-12-29T19:23:35.090Z,1.83
2022-12-29T19:26:01.755Z,2.78
2022-12-29T19:28:29.119Z,2.20
2022-12-29T19:31:02.163Z,2.50
2022-12-29T19:33:29.518Z,2.03
2022-12-29T19:36:02.843Z,1.70
2022-12-29T19:38:29.927Z,4.03
2022-12-29T19:40:56.903Z,2.05
2022-12-29T19:43:23.507Z,1.73
2022-12-29T19:45:51.434Z,2.28
2022-12-29T19:48:20.266Z,2.38
2022-12-29T19:50:47.444Z,1.98
2022-12-29T19:53:14.799Z,2.50
2022-12-29T19:55:45.973Z,2.05
2022-12-29T19:58:13.119Z,3.03
2022-12-29T20:00:41.563Z,2.67
2022-12-29T20:03:09.242Z,2.70
2022-12-29T20:05:36.182Z,2.50
2022-12-29T20:08:03.094Z,2.35
2022-12-29T20:10:29.957Z,2.85
2022-12-29T20:12:56.653Z,2.83
2022-12-29T20:15:23.279Z,2.97
2022-12-29T20:20:36.530Z,2.85
2022-12-29T20:23:03.182Z,1.75
2022-12-29T20:25:46.622Z,4.35
2022-12-29T20:28:15.695Z,2.63
2022-12-29T20:30:42.823Z,1.95
2022-12-29T20:33:09.503Z,1.83
2022-12-29T20:35:37.228Z,2.95
2022-12-29T20:38:04.956Z,2.25
2022-12-29T20:40:32.035Z,2.80
2022-12-29T20:42:58.759Z,2.67
2022-12-29T20:45:25.763Z,2.22
2022-12-29T20:47:52.453Z,2.50
2022-12-29T20:50:19.130Z,3.38
2022-12-29T20:52:46.853Z,3.38
2022-12-29T20:55:14.102Z,2.08
2022-12-29T20:58:14.203Z,2.10
2022-12-29T21:00:30.488Z,2.15
2022-12-29T21:02:58.961Z,2.78
2022-12-29T21:05:27.109Z,2.13
2022-12-29T21:07:54.722Z,1.90
2022-12-29T21:10:21.812Z,2.90
2022-12-29T21:12:48.733Z,2.72
2022-12-29T21:15:15.960Z,2.55
2022-12-29T21:17:43.579Z,1.95
2022-12-29T21:20:19.781Z,2.65
2022-12-29T21:22:47.884Z,2.28
2022-12-29T21:25:15.033Z,2.83
2022-12-29T21:27:44.965Z,3.15
2022-12-29T21:30:12.903Z,2.30
2022-12-29T21:32:40.725Z,2.03
2022-12-29T21:35:09.038Z,2.33
2022-12-29T21:37:36.756Z,2.22
2022-12-29T21:40:04.677Z,1.63
2022-12-29T21:42:31.769Z,1.52
2022-12-29T21:45:20.727Z,2.22
2022-12-29T21:48:07.425Z,2.25
2022-12-29T21:50:57.549Z,1.65
2022-12-29T21:53:37.636Z,1.67
2022-12-29T21:56:08.651Z,2.05
2022-12-29T21:58:55.470Z,1.88
2022-12-29T22:01:41.228Z,2.10
2022-12-29T22:04:26.323Z,1.50
2022-12-29T22:07:11.778Z,1.92
2022-12-29T22:09:56.802Z,2.85
2022-12-29T22:12:42.136Z,3.17
2022-12-29T22:15:09.071Z,2.35
2022-12-29T22:17:37.765Z,2.17
2022-12-29T22:20:05.760Z,3.00
2022-12-29T22:22:32.624Z,2.17
2022-12-29T22:24:59.845Z,2.30
2022-12-29T22:27:26.619Z,2.22
2022-12-29T22:29:53.446Z,2.72
2022-12-29T22:32:20.200Z,2.92
2022-12-29T22:34:50.394Z,2.60
2022-12-29T22:37:17.280Z,2.33
2022-12-29T22:39:43.984Z,1.92
2022-12-29T22:42:11.155Z,2.33
2022-12-29T22:44:38.029Z,3.65
2022-12-29T22:47:04.787Z,3.08
2022-12-29T22:49:31.427Z,2.63
2022-12-29T22:51:58.066Z,1.92
2022-12-29T22:54:25.884Z,2.28
2022-12-29T22:56:52.730Z,3.25
2022-12-29T22:59:19.826Z,2.38
2022-12-29T23:01:46.814Z,1.80
2022-12-29T23:04:59.187Z,2.20
2022-12-29T23:07:00.640Z,2.55
2022-12-29T23:09:27.268Z,2.80
2022-12-29T23:11:53.919Z,1.80
2022-12-29T23:14:20.573Z,2.05
2022-12-29T23:16:47.564Z,1.45
2022-12-29T23:19:15.372Z,1.90
2022-12-29T23:21:42.298Z,1.30
2022-12-29T23:24:12.901Z,1.90
2022-12-29T23:26:45.564Z,3.08
2022-12-29T23:29:18.164Z,3.67
2022-12-29T23:31:45.984Z,2.17
2022-12-29T23:34:15.442Z,1.48
2022-12-29T23:36:42.178Z,1.83
2022-12-29T23:39:09.712Z,2.17
2022-12-29T23:41:36.579Z,1.70
2022-12-29T23:44:03.391Z,1.70
2022-12-29T23:46:31.365Z,1.98
2022-12-29T23:48:58.630Z,1.67
2022-12-29T23:51:25.538Z,1.90
2022-12-29T23:53:53.810Z,1.48
2022-12-29T23:56:23.771Z,1.80
2022-12-29T23:58:51.477Z,1.88
